createdAt,value
2023-04-02T00:00:10.452Z,9.98
2023-04-02T00:02:58.264Z,10.00
2023-04-02T00:05:30.341Z,9.93
2023-04-02T00:08:03.794Z,9.94
2023-04-02T00:10:35.169Z,9.93
2023-04-02T00:13:05.013Z,9.85
2023-04-02T00:15:33.394Z,9.73
2023-04-02T00:18:02.173Z,9.66
2023-04-02T00:20:35.377Z,9.52
2023-04-02T00:23:03.351Z,9.47
2023-04-02T00:25:36.556Z,9.43
2023-04-02T00:28:04.263Z,9.35
2023-04-02T00:30:31.936Z,9.12
2023-04-02T00:32:59.339Z,9.05
2023-04-02T00:35:29.073Z,9.06
2023-04-02T00:37:56.877Z,9.03
2023-04-02T00:40:26.757Z,9.04
2023-04-02T00:42:57.877Z,9.02
2023-04-02T00:45:31.924Z,9.03
2023-04-02T00:48:13.915Z,8.98
2023-04-02T00:50:44.483Z,8.98
2023-04-02T00:53:24.351Z,8.94
2023-04-02T00:55:52.200Z,8.90
2023-04-02T00:58:27.722Z,8.95
2023-04-02T01:00:55.030Z,8.85
2023-04-02T01:03:28.919Z,8.78
2023-04-02T01:06:03.616Z,8.64
2023-04-02T01:08:44.031Z,8.59
2023-04-02T01:11:36.194Z,8.50
2023-04-02T01:14:36.057Z,8.45
2023-04-02T01:17:19.926Z,8.44
2023-04-02T01:20:01.936Z,8.46
2023-04-02T01:22:47.884Z,8.51
2023-04-02T01:25:24.976Z,8.60
2023-04-02T01:28:04.869Z,8.60
2023-04-02T01:30:36.576Z,8.62
2023-04-02T01:33:05.560Z,8.63
2023-04-02T01:35:38.663Z,8.66
2023-04-02T01:38:30.376Z,8.97
2023-04-02T01:41:12.789Z,9.07
2023-04-02T01:44:21.448Z,9.03
2023-04-02T01:46:49.376Z,8.87
2023-04-02T01:49:22.483Z,8.83
2023-04-02T01:51:56.827Z,8.83
2023-04-02T01:54:28.777Z,8.73
2023-04-02T01:56:57.461Z,8.69
2023-04-02T01:59:26.311Z,8.68
2023-04-02T02:02:04.358Z,8.70
2023-04-02T02:04:34.555Z,8.73
2023-04-02T02:07:02.843Z,8.79
2023-04-02T02:09:35.739Z,8.62
2023-04-02T02:12:04.753Z,8.49
2023-04-02T02:14:32.471Z,8.43
2023-04-02T02:17:02.420Z,8.40
2023-04-02T02:19:29.567Z,8.38
2023-04-02T02:22:27.723Z,8.35
2023-04-02T02:24:57.592Z,8.25
2023-04-02T02:27:25.148Z,8.06
2023-04-02T02:30:24.782Z,8.02
2023-04-02T02:33:17.018Z,7.98
2023-04-02T02:36:01.106Z,7.82
2023-04-02T02:38:54.095Z,7.76
2023-04-02T02:41:41.464Z,7.82
2023-04-02T02:44:09.419Z,7.90
2023-04-02T02:46:51.654Z,7.92
2023-04-02T02:49:32.888Z,7.87
2023-04-02T02:52:14.869Z,7.95
2023-04-02T02:54:56.951Z,8.13
2023-04-02T02:57:33.891Z,8.23
2023-04-02T03:00:02.313Z,8.27
2023-04-02T03:02:35.311Z,8.24
2023-04-02T03:05:04.928Z,8.17
2023-04-02T03:07:32.505Z,8.17
2023-04-02T03:10:04.094Z,8.26
2023-04-02T03:12:39.730Z,8.36
2023-04-02T03:15:23.289Z,8.36
2023-04-02T03:18:01.930Z,8.41
2023-04-02T03:20:55.952Z,8.31
2023-04-02T03:23:43.107Z,8.30
2023-04-02T03:26:27.998Z,8.41
2023-04-02T03:29:02.693Z,8.42
2023-04-02T03:31:37.929Z,8.41
2023-04-02T03:34:13.588Z,8.36
2023-04-02T03:36:51.205Z,8.27
2023-04-02T03:39:25.824Z,8.30
2023-04-02T03:42:16.992Z,8.26
2023-04-02T03:45:03.422Z,8.21
2023-04-02T03:47:34.100Z,8.19
2023-04-02T03:50:18.428Z,8.17
2023-04-02T03:52:45.999Z,8.10
2023-04-02T03:55:21.632Z,8.07
2023-04-02T03:58:11.250Z,8.11
2023-04-02T04:00:42.404Z,8.12
2023-04-02T04:03:50.564Z,7.95
2023-04-02T04:06:29.582Z,7.94
2023-04-02T04:09:08.996Z,7.97
2023-04-02T04:11:43.920Z,7.95
2023-04-02T04:14:19.811Z,7.92
2023-04-02T04:17:04.443Z,7.90
2023-04-02T04:19:54.924Z,7.91
2023-04-02T04:22:30.188Z,7.97
2023-04-02T04:25:07.593Z,7.97
2023-04-02T04:28:17.341Z,7.98
2023-04-02T04:31:11.093Z,7.99
2023-04-02T04:33:46.426Z,7.92
2023-04-02T04:36:31.408Z,7.86
2023-04-02T04:39:14.635Z,7.77
2023-04-02T04:41:47.637Z,7.84
2023-04-02T04:44:23.091Z,7.78
2023-04-02T04:47:03.497Z,7.74
2023-04-02T04:49:45.004Z,7.76
2023-04-02T04:52:17.930Z,7.80
2023-04-02T04:54:47.196Z,7.81
2023-04-02T04:57:29.743Z,7.87
2023-04-02T05:00:12.963Z,7.98
2023-04-02T05:02:52.633Z,8.03
2023-04-02T05:05:29.461Z,8.01
2023-04-02T05:08:11.117Z,8.09
2023-04-02T05:10:44.837Z,8.06
2023-04-02T05:13:28.744Z,8.17
2023-04-02T05:16:24.067Z,8.19
2023-04-02T05:19:06.369Z,8.27
2023-04-02T05:21:49.707Z,8.23
2023-04-02T05:24:46.558Z,8.30
2023-04-02T05:27:39.599Z,8.36
2023-04-02T05:30:52.741Z,8.39
2023-04-02T05:33:28.240Z,8.39
2023-04-02T05:36:05.270Z,8.40
2023-04-02T05:38:46.358Z,8.32
2023-04-02T05:41:36.781Z,8.31
2023-04-02T05:44:31.259Z,8.27
2023-04-02T05:47:04.511Z,8.32
2023-04-02T05:49:36.827Z,8.27
2023-04-02T05:52:06.865Z,8.18
2023-04-02T05:55:03.685Z,8.21
2023-04-02T05:57:46.801Z,8.32
2023-04-02T06:00:41.890Z,8.42
2023-04-02T06:03:27.305Z,8.58
2023-04-02T06:06:01.140Z,8.64
2023-04-02T06:08:41.594Z,8.77
2023-04-02T06:11:13.828Z,8.87
2023-04-02T06:13:42.296Z,9.03
2023-04-02T06:16:14.506Z,9.16
2023-04-02T06:18:43.662Z,9.20
2023-04-02T06:21:15.543Z,9.19
2023-04-02T06:23:58.843Z,9.24
2023-04-02T06:26:33.042Z,9.41
2023-04-02T06:29:41.225Z,9.47
2023-04-02T06:32:13.903Z,9.56
2023-04-02T06:34:45.285Z,9.55
2023-04-02T06:37:37.725Z,9.56
2023-04-02T06:40:41.612Z,9.70
2023-04-02T06:43:50.794Z,9.83
2023-04-02T06:46:53.176Z,9.61
2023-04-02T06:49:30.234Z,9.61
2023-04-02T06:52:04.583Z,9.74
2023-04-02T06:54:32.121Z,9.93
2023-04-02T06:57:07.092Z,10.09
2023-04-02T06:59:37.976Z,10.18
2023-04-02T07:02:23.501Z,10.26
2023-04-02T07:04:51.049Z,10.36
2023-04-02T07:07:19.825Z,10.47
2023-04-02T07:09:48.516Z,10.53
2023-04-02T07:12:23.653Z,10.56
2023-04-02T07:14:51.321Z,10.73
2023-04-02T07:17:20.216Z,10.87
2023-04-02T07:19:49.670Z,10.93
2023-04-02T07:22:19.841Z,10.98
2023-04-02T07:24:51.389Z,10.98
2023-04-02T07:27:18.604Z,10.95
2023-04-02T07:29:45.795Z,10.96
2023-04-02T07:32:13.813Z,10.84
2023-04-02T07:34:41.905Z,10.89
2023-04-02T07:37:13.950Z,10.90
2023-04-02T07:39:41.744Z,10.91
2023-04-02T07:42:09.327Z,10.97
2023-04-02T07:44:36.426Z,11.05
2023-04-02T07:47:03.719Z,11.16
2023-04-02T07:49:30.970Z,11.24
2023-04-02T07:51:58.073Z,11.24
2023-04-02T07:54:27.125Z,11.28
2023-04-02T07:56:54.400Z,11.25
2023-04-02T07:59:21.604Z,11.23
2023-04-02T08:01:48.761Z,11.18
2023-04-02T08:04:18.909Z,11.29
2023-04-02T08:06:47.365Z,11.24
2023-04-02T08:09:15.762Z,11.32
2023-04-02T08:11:43.681Z,11.39
2023-04-02T08:14:10.817Z,11.30
2023-04-02T08:16:49.406Z,11.36
2023-04-02T08:19:17.747Z,11.37
2023-04-02T08:21:45.166Z,11.31
2023-04-02T08:24:12.276Z,11.40
2023-04-02T08:26:39.413Z,11.55
2023-04-02T08:29:06.570Z,11.54
2023-04-02T08:31:33.674Z,11.55
2023-04-02T08:34:01.567Z,11.63
2023-04-02T08:36:38.102Z,11.72
2023-04-02T08:39:10.909Z,11.79
2023-04-02T08:41:45.637Z,12.05
2023-04-02T08:44:27.957Z,12.16
2023-04-02T08:47:07.334Z,12.19
2023-04-02T08:49:56.001Z,12.38
2023-04-02T08:52:28.284Z,12.32
2023-04-02T08:54:57.897Z,12.36
2023-04-02T08:57:42.284Z,12.34
2023-04-02T09:00:15.740Z,12.22
2023-04-02T09:02:49.597Z,12.02
2023-04-02T09:05:24.141Z,11.91
2023-04-02T09:07:52.619Z,11.93
2023-04-02T09:10:21.479Z,11.76
2023-04-02T09:12:53.386Z,11.82
2023-04-02T09:15:31.303Z,11.81
2023-04-02T09:18:14.949Z,11.73
2023-04-02T09:20:42.744Z,11.74
2023-04-02T09:23:19.736Z,11.74
2023-04-02T09:26:02.920Z,11.88
2023-04-02T09:28:31.975Z,11.88
2023-04-02T09:31:11.047Z,12.10
2023-04-02T09:33:48.314Z,12.12
2023-04-02T09:36:28.168Z,12.36
2023-04-02T09:39:22.708Z,12.55
2023-04-02T09:42:02.734Z,12.78
2023-04-02T09:44:32.558Z,13.10
2023-04-02T09:47:05.951Z,13.61
2023-04-02T09:49:36.122Z,14.21
2023-04-02T09:52:18.742Z,14.55
2023-04-02T09:54:46.740Z,14.91
2023-04-02T09:57:27.930Z,14.90
2023-04-02T10:02:45.322Z,15.70
2023-04-02T10:05:38.913Z,15.91
2023-04-02T10:08:28.107Z,15.85
2023-04-02T10:10:59.498Z,15.77
2023-04-02T10:13:48.143Z,15.98
2023-04-02T10:16:19.524Z,16.28
2023-04-02T10:18:51.872Z,16.19
2023-04-02T10:21:26.878Z,16.52
2023-04-02T10:23:55.450Z,16.63
2023-04-02T10:26:37.495Z,16.99
2023-04-02T10:29:31.018Z,16.94
2023-04-02T10:32:20.458Z,16.93
2023-04-02T10:34:52.946Z,16.87
2023-04-02T10:37:41.429Z,17.07
2023-04-02T10:40:20.211Z,16.92
2023-04-02T10:43:34.395Z,17.18
2023-04-02T10:46:25.927Z,17.16
2023-04-02T10:48:58.704Z,17.08
2023-04-02T10:51:31.905Z,16.60
2023-04-02T10:54:27.900Z,16.62
2023-04-02T10:57:10.572Z,17.38
2023-04-02T10:59:43.245Z,17.67
2023-04-02T11:02:39.405Z,17.75
2023-04-02T11:05:40.739Z,17.99
2023-04-02T11:08:33.246Z,17.70
2023-04-02T11:11:07.827Z,18.05
2023-04-02T11:13:40.857Z,17.71
2023-04-02T11:16:08.075Z,17.45
2023-04-02T11:18:38.710Z,17.73
2023-04-02T11:21:27.221Z,17.76
2023-04-02T11:24:00.774Z,17.29
2023-04-02T11:26:41.043Z,16.86
2023-04-02T11:29:14.293Z,16.53
2023-04-02T11:31:42.842Z,16.38
2023-04-02T11:34:31.953Z,16.36
2023-04-02T11:37:00.583Z,16.58
2023-04-02T11:39:46.491Z,16.47
2023-04-02T11:42:19.511Z,16.38
2023-04-02T11:44:46.728Z,16.42
2023-04-02T11:47:21.315Z,16.71
2023-04-02T11:49:58.834Z,16.91
2023-04-02T11:52:47.498Z,16.88
2023-04-02T11:55:27.092Z,16.58
2023-04-02T11:58:23.883Z,16.56
2023-04-02T12:01:18.330Z,16.43
2023-04-02T12:03:53.821Z,16.71
2023-04-02T12:06:31.233Z,16.86
2023-04-02T12:09:27.182Z,17.04
2023-04-02T12:12:00.981Z,17.04
2023-04-02T12:14:48.468Z,17.12
2023-04-02T12:17:24.909Z,17.10
2023-04-02T12:19:55.312Z,17.22
2023-04-02T12:22:31.074Z,17.34
2023-04-02T12:25:01.035Z,17.11
2023-04-02T12:27:29.591Z,17.35
2023-04-02T12:30:12.995Z,16.99
2023-04-02T12:32:40.765Z,17.20
2023-04-02T12:35:33.219Z,17.19
2023-04-02T12:38:01.027Z,17.31
2023-04-02T12:40:28.538Z,17.51
2023-04-02T12:42:55.979Z,17.46
2023-04-02T12:45:28.589Z,17.40
2023-04-02T12:47:57.473Z,17.42
2023-04-02T12:50:24.818Z,17.50
2023-04-02T12:52:55.552Z,17.50
2023-04-02T12:55:24.929Z,17.26
2023-04-02T12:57:59.619Z,16.79
2023-04-02T13:00:29.925Z,16.65
2023-04-02T13:03:06.440Z,16.44
2023-04-02T13:05:45.938Z,16.20
2023-04-02T13:08:19.373Z,15.95
2023-04-02T13:10:51.786Z,15.53
2023-04-02T13:13:24.715Z,15.31
2023-04-02T13:16:03.897Z,14.95
2023-04-02T13:18:32.727Z,14.73
2023-04-02T13:21:21.169Z,14.59
2023-04-02T13:23:48.460Z,14.36
2023-04-02T13:26:22.253Z,14.29
2023-04-02T13:29:02.686Z,14.11
2023-04-02T13:31:33.375Z,14.04
2023-04-02T13:34:00.704Z,13.75
2023-04-02T13:36:29.465Z,13.59
2023-04-02T13:38:57.493Z,13.58
2023-04-02T13:41:30.562Z,13.31
2023-04-02T13:44:00.421Z,13.34
2023-04-02T13:46:35.227Z,13.19
2023-04-02T13:49:02.566Z,13.25
2023-04-02T13:51:39.212Z,13.07
2023-04-02T13:54:20.418Z,12.97
2023-04-02T13:56:47.933Z,13.01
2023-04-02T13:59:16.046Z,12.83
2023-04-02T14:01:44.725Z,12.73
2023-04-02T14:04:17.716Z,12.75
2023-04-02T14:07:03.224Z,12.64
2023-04-02T14:09:50.353Z,12.45
2023-04-02T14:12:24.695Z,12.21
2023-04-02T14:15:13.993Z,12.17
2023-04-02T14:18:26.778Z,11.99
2023-04-02T14:21:09.270Z,12.04
2023-04-02T14:23:53.903Z,11.96
2023-04-02T14:26:33.017Z,11.97
2023-04-02T14:29:09.911Z,11.93
2023-04-02T14:31:41.930Z,11.94
2023-04-02T14:34:50.267Z,11.89
2023-04-02T14:37:23.827Z,11.84
2023-04-02T14:40:14.286Z,11.77
2023-04-02T14:42:53.158Z,11.68
2023-04-02T14:45:38.738Z,11.61
2023-04-02T14:48:16.762Z,11.48
2023-04-02T14:50:44.096Z,11.29
2023-04-02T14:53:43.718Z,10.91
2023-04-02T14:56:13.057Z,10.71
2023-04-02T14:58:48.564Z,10.70
2023-04-02T15:01:27.571Z,10.63
2023-04-02T15:04:02.182Z,10.66
2023-04-02T15:06:37.898Z,10.82
2023-04-02T15:09:17.337Z,10.64
2023-04-02T15:12:02.662Z,10.57
2023-04-02T15:14:32.802Z,10.41
2023-04-02T15:16:59.943Z,10.36
2023-04-02T15:19:27.052Z,10.36
2023-04-02T15:22:27.457Z,10.33
2023-04-02T15:24:57.284Z,10.18
2023-04-02T15:27:30.321Z,10.20
2023-04-02T15:30:20.408Z,10.24
2023-04-02T15:32:48.963Z,10.27
2023-04-02T15:35:38.168Z,10.28
2023-04-02T15:38:14.489Z,10.28
2023-04-02T15:41:08.764Z,10.35
2023-04-02T15:43:35.851Z,10.38
2023-04-02T15:46:42.038Z,10.36
2023-04-02T15:49:46.275Z,10.35
2023-04-02T15:52:38.336Z,10.40
2023-04-02T15:55:41.540Z,10.50
2023-04-02T15:58:27.488Z,10.55
2023-04-02T16:01:08.328Z,10.64
2023-04-02T16:03:49.498Z,10.67
2023-04-02T16:06:19.832Z,10.63
2023-04-02T16:08:57.283Z,10.66
2023-04-02T16:11:26.076Z,10.71
2023-04-02T16:14:13.402Z,10.81
2023-04-02T16:16:42.367Z,10.92
2023-04-02T16:19:28.764Z,11.07
2023-04-02T16:22:18.151Z,11.24
2023-04-02T16:24:50.265Z,11.38
2023-04-02T16:27:37.562Z,11.51
2023-04-02T16:30:43.533Z,11.48
2023-04-02T16:33:32.792Z,11.60
2023-04-02T16:36:02.605Z,11.41
2023-04-02T16:38:57.464Z,11.34
2023-04-02T16:41:27.431Z,11.30
2023-04-02T16:44:35.548Z,11.49
2023-04-02T16:47:17.673Z,11.52
2023-04-02T16:50:23.135Z,11.49
2023-04-02T16:52:59.811Z,11.35
2023-04-02T16:56:08.176Z,11.32
2023-04-02T16:58:50.104Z,11.31
2023-04-02T17:01:42.785Z,11.23
2023-04-02T17:04:21.924Z,11.26
2023-04-02T17:07:15.698Z,11.13
2023-04-02T17:09:51.050Z,10.89
2023-04-02T17:12:28.040Z,10.73
2023-04-02T17:15:00.969Z,10.66
2023-04-02T17:17:28.217Z,10.55
2023-04-02T17:19:59.546Z,10.46
2023-04-02T17:22:27.923Z,10.33
2023-04-02T17:25:01.527Z,10.30
2023-04-02T17:27:34.873Z,10.19
2023-04-02T17:30:18.326Z,10.03
2023-04-02T17:32:46.067Z,9.89
2023-04-02T17:35:42.167Z,9.80
2023-04-02T17:38:25.605Z,9.71
2023-04-02T17:41:13.281Z,9.62
2023-04-02T17:43:46.360Z,9.54
2023-04-02T17:46:34.614Z,9.40
2023-04-02T17:49:24.662Z,9.30
2023-04-02T17:52:23.433Z,9.24
2023-04-02T17:55:02.543Z,9.15
2023-04-02T17:57:41.745Z,9.08
2023-04-02T18:00:21.480Z,9.00
2023-04-02T18:03:06.867Z,8.93
2023-04-02T18:05:48.954Z,8.83
2023-04-02T18:08:34.024Z,8.77
2023-04-02T18:11:13.743Z,8.70
2023-04-02T18:13:55.907Z,8.66
2023-04-02T18:16:46.473Z,8.67
2023-04-02T18:19:18.321Z,8.63
2023-04-02T18:21:57.934Z,8.64
2023-04-02T18:24:55.692Z,8.73
2023-04-02T18:27:45.671Z,8.70
2023-04-02T18:30:23.555Z,8.71
2023-04-02T18:33:15.632Z,8.64
2023-04-02T18:35:54.262Z,8.55
2023-04-02T18:38:40.321Z,8.52
2023-04-02T18:41:32.113Z,8.44
2023-04-02T18:44:02.178Z,8.33
2023-04-02T18:46:48.054Z,8.25
2023-04-02T18:49:34.412Z,8.21
2023-04-02T18:52:09.487Z,8.26
2023-04-02T18:54:44.383Z,8.26
2023-04-02T18:57:15.581Z,8.25
2023-04-02T18:59:53.468Z,8.24
2023-04-02T19:02:20.705Z,8.17
2023-04-02T19:05:23.621Z,8.13
2023-04-02T19:07:55.134Z,8.10
2023-04-02T19:10:35.277Z,8.05
2023-04-02T19:13:02.475Z,8.03
2023-04-02T19:15:43.203Z,7.98
2023-04-02T19:18:16.395Z,7.99
2023-04-02T19:21:28.929Z,7.97
2023-04-02T19:24:15.026Z,7.94
2023-04-02T19:27:05.082Z,7.88
2023-04-02T19:29:59.283Z,7.82
2023-04-02T19:32:35.690Z,7.84
2023-04-02T19:35:29.652Z,7.85
2023-04-02T19:38:02.887Z,7.80
2023-04-02T19:40:42.193Z,7.81
2023-04-02T19:43:10.692Z,7.74
2023-04-02T19:45:41.736Z,7.70
2023-04-02T19:48:21.106Z,7.62
2023-04-02T19:50:49.328Z,7.64
2023-04-02T19:53:17.354Z,7.64
2023-04-02T19:55:45.051Z,7.62
2023-04-02T19:58:27.245Z,7.46
2023-04-02T20:00:54.859Z,7.46
2023-04-02T20:03:22.271Z,7.41
2023-04-02T20:05:49.551Z,7.36
2023-04-02T20:08:16.793Z,7.37
2023-04-02T20:10:44.385Z,7.39
2023-04-02T20:13:12.006Z,7.39
2023-04-02T20:15:40.011Z,7.44
2023-04-02T20:18:07.359Z,7.42
2023-04-02T20:20:34.868Z,7.40
2023-04-02T20:23:02.313Z,7.27
2023-04-02T20:25:29.463Z,7.16
2023-04-02T20:27:56.851Z,7.05
2023-04-02T20:30:24.039Z,6.98
2023-04-02T20:32:51.435Z,6.92
2023-04-02T20:35:18.634Z,6.87
2023-04-02T20:37:45.728Z,6.81
2023-04-02T20:40:12.938Z,6.79
2023-04-02T20:42:40.102Z,6.78
2023-04-02T20:45:08.791Z,6.75
2023-04-02T20:47:35.948Z,6.74
2023-04-02T20:50:03.203Z,6.71
2023-04-02T20:52:32.324Z,6.72
2023-04-02T20:54:59.433Z,6.69
2023-04-02T20:57:29.650Z,6.62
2023-04-02T20:59:58.797Z,6.54
2023-04-02T21:02:26.116Z,6.46
2023-04-02T21:04:55.469Z,6.44
2023-04-02T21:07:22.841Z,6.37
2023-04-02T21:09:51.723Z,6.32
2023-04-02T21:12:19.303Z,6.30
2023-04-02T21:14:48.308Z,6.32
2023-04-02T21:17:16.064Z,6.29
2023-04-02T21:19:43.222Z,6.29
2023-04-02T21:22:10.364Z,6.26
2023-04-02T21:24:37.476Z,6.29
2023-04-02T21:27:04.621Z,6.31
2023-04-02T21:29:31.855Z,6.27
2023-04-02T21:32:01.562Z,6.30
2023-04-02T21:34:32.737Z,6.29
2023-04-02T21:36:59.938Z,6.27
2023-04-02T21:39:27.250Z,6.36
2023-04-02T21:41:54.745Z,6.37
2023-04-02T21:44:23.536Z,6.35
2023-04-02T21:46:52.970Z,6.37
2023-04-02T21:49:22.711Z,6.34
2023-04-02T21:51:51.620Z,6.38
2023-04-02T21:54:19.599Z,6.36
2023-04-02T21:56:46.906Z,6.38
2023-04-02T21:59:15.801Z,6.41
2023-04-02T22:01:46.523Z,6.44
2023-04-02T22:04:22.997Z,6.39
2023-04-02T22:06:52.082Z,6.36
2023-04-02T22:09:22.494Z,6.32
2023-04-02T22:11:54.289Z,6.31
2023-04-02T22:14:23.282Z,6.24
2023-04-02T22:16:51.907Z,6.17
2023-04-02T22:19:19.229Z,6.18
2023-04-02T22:21:46.442Z,6.14
2023-04-02T22:24:16.259Z,6.11
2023-04-02T22:26:44.283Z,6.09
2023-04-02T22:29:11.821Z,6.06
2023-04-02T22:31:39.113Z,6.06
2023-04-02T22:34:07.226Z,6.02
2023-04-02T22:36:35.329Z,6.02
2023-04-02T22:39:05.585Z,5.98
2023-04-02T22:41:33.294Z,5.91
2023-04-02T22:44:01.838Z,5.84
2023-04-02T22:46:30.117Z,5.82
2023-04-02T22:48:58.096Z,5.79
2023-04-02T22:51:26.057Z,5.79
2023-04-02T22:53:54.834Z,5.73
2023-04-02T22:56:26.712Z,5.69
2023-04-02T22:58:53.989Z,5.68
2023-04-02T23:01:24.554Z,5.67
2023-04-02T23:03:54.003Z,5.66
2023-04-02T23:06:21.843Z,5.62
2023-04-02T23:08:49.052Z,5.57
2023-04-02T23:11:22.223Z,5.57
2023-04-02T23:13:51.706Z,5.61
2023-04-02T23:16:19.760Z,5.60
2023-04-02T23:18:48.361Z,5.67
2023-04-02T23:21:17.355Z,5.73
2023-04-02T23:23:45.317Z,5.64
2023-04-02T23:26:16.734Z,5.53
2023-04-02T23:28:44.479Z,5.51
2023-04-02T23:31:14.337Z,5.46
2023-04-02T23:33:41.600Z,5.45
2023-04-02T23:36:10.530Z,5.37
2023-04-02T23:38:37.680Z,5.37
2023-04-02T23:41:04.925Z,5.33
2023-04-02T23:43:32.039Z,5.33
2023-04-02T23:45:59.157Z,5.38
2023-04-02T23:48:26.294Z,5.34
2023-04-02T23:50:53.412Z,5.34
2023-04-02T23:53:20.611Z,5.38
2023-04-02T23:55:48.009Z,5.38
2023-04-02T23:58:15.406Z,5.40
